Time;durP1;ratioP1;P1;durP2;ratioP2;P2;SDS_P1;SDS_P2;PMS_P1;PMS_P2;Temp;Humidity;BMP_temperature;BMP_pressure;BME280_temperature;BME280_humidity;BME280_pressure;Samples;Min_cycle;Max_cycle;Signal;HPM_P1;HPM_P2
2022/04/02 00:00:50;;;;;;;;;;;;;;;;;;2098239;28;19978;-51
2022/04/02 00:01:51;;;;;;;;;;;;;;;;;;2098456;28;19924;-50
2022/04/02 00:02:52;;;;;;;;;;;;;;;;;;2098146;28;19969;-48
2022/04/02 00:03:54;;;;;;;;;;;;;;;;;;2098108;28;19970;-49
2022/04/02 00:04:55;;;;;;;;;;;;;;;;;;2098227;28;20278;-49
2022/04/02 00:05:56;;;;;;;;;;;;;;;;;;2098201;28;19925;-52
2022/04/02 00:06:57;;;;;;;;;;;;;;;;;;2098199;28;19935;-49
2022/04/02 00:07:58;;;;;;;;;;;;;;;;;;2097113;28;19925;-49
2022/04/02 00:08:59;;;;;;;;;;;;;;;;;;2098439;28;19924;-52
2022/04/02 00:10:00;;;;;;;;;;;;;;;;;;2098185;28;19925;-52
2022/04/02 00:11:01;;;;;;;;;;;;;;;;;;2098141;28;20284;-49
2022/04/02 00:12:02;;;;;;;;;;;;;;;;;;2098055;28;19999;-51
2022/04/02 00:13:03;;;;;;;;;;;;;;;;;;2098229;28;20431;-50
2022/04/02 00:14:04;;;;;;;;;;;;;;;;;;2098286;28;19928;-48
2022/04/02 00:15:05;;;;;;;;;;;;;;;;;;2098169;28;19924;-45
2022/04/02 00:16:07;;;;;;;;;;;;;;;;;;2098343;28;19928;-44
2022/04/02 00:17:08;;;;;;;;;;;;;;;;;;2098073;28;19924;-44
2022/04/02 00:18:10;;;;;;;;;;;;;;;;;;2098172;28;19924;-45
2022/04/02 00:19:11;;;;;;;;;;;;;;;;;;2098020;28;19974;-45
2022/04/02 00:20:12;;;;;;;;;;;;;;;;;;2098060;28;19931;-46
2022/04/02 00:21:13;;;;;;;;;;;;;;;;;;2098090;28;19924;-44
2022/04/02 00:22:14;;;;;;;;;;;;;;;;;;2098378;28;19932;-45
2022/04/02 00:24:35;;;;;;;;;;;;;;;;;;2093627;28;20417;-46
2022/04/02 00:25:36;;;;;;;;;;;;;;;;;;2097984;28;20370;-45
2022/04/02 00:26:37;;;;;;;;;;;;;;;;;;2091969;28;19929;-50
2022/04/02 00:27:38;;;;;;;;;;;;;;;;;;2091259;28;20320;-49
2022/04/02 00:28:39;;;;;;;;;;;;;;;;;;2096760;28;19925;-51
2022/04/02 00:29:41;;;;;;;;;;;;;;;;;;2098269;28;19931;-48
2022/04/02 00:30:42;;;;;;;;;;;;;;;;;;2098057;28;20381;-50
2022/04/02 00:31:43;;;;;;;;;;;;;;;;;;2093728;28;20275;-52
2022/04/02 00:32:44;;;;;;;;;;;;;;;;;;2093071;28;20301;-47
2022/04/02 00:33:45;;;;;;;;;;;;;;;;;;2089986;28;19925;-45
2022/04/02 00:34:47;;;;;;;;;;;;;;;;;;2089648;28;19925;-44
2022/04/02 00:35:48;;;;;;;;;;;;;;;;;;2089764;28;19929;-45
2022/04/02 00:36:49;;;;;;;;;;;;;;;;;;2095852;28;19929;-48
2022/04/02 00:37:50;;;;;;;;;;;;;;;;;;2097960;28;19967;-46
2022/04/02 00:38:51;;;;;;;;;;;;;;;;;;2097989;28;20281;-45
2022/04/02 00:39:52;;;;;;;;;;;;;;;;;;2097977;28;20377;-46
2022/04/02 00:40:53;;;;;;;;;;;;;;;;;;2097982;28;19931;-46
2022/04/02 00:41:54;;;;;;;;;;;;;;;;;;2097939;28;20366;-45
2022/04/02 00:42:55;;;;;;;;;;;;;;;;;;2098102;28;19925;-46
2022/04/02 00:43:56;;;;;;;;;;;;;;;;;;2098324;28;19924;-45
2022/04/02 00:44:57;;;;;;;;;;;;;;;;;;2098519;28;19925;-45
2022/04/02 00:45:58;;;;;;;;;;;;;;;;;;2098071;28;20373;-47
2022/04/02 00:46:59;;;;;;;;;;;;;;;;;;2098252;28;19924;-49
2022/04/02 00:48:01;;;;;;;;;;;;;;;;;;2097980;28;19925;-48
2022/04/02 00:49:04;;;;;;;;;;;;;;;;;;2097740;28;19978;-45
2022/04/02 00:50:05;;;;;;;;;;;;;;;;;;2098578;28;19925;-46
2022/04/02 00:51:06;;;;;;;;;;;;;;;;;;2098388;28;20417;-44
2022/04/02 00:52:07;;;;;;;;;;;;;;;;;;2098183;28;19928;-43
2022/04/02 00:53:08;;;;;;;;;;;;;;;;;;2097885;28;20377;-44
2022/04/02 00:54:10;;;;;;;;;;;;;;;;;;2097906;28;19924;-45
2022/04/02 00:55:10;;;;;;;;;;;;;;;;;;2098342;28;20051;-44
2022/04/02 00:56:12;;;;;;;;;;;;;;;;;;2097932;28;19925;-44
2022/04/02 00:57:12;;;;;;;;;;;;;;;;;;2098527;28;19925;-43
2022/04/02 00:58:14;;;;;;;;;;;;;;;;;;2097792;28;19924;-43
2022/04/02 00:59:15;;;;;;;;;;;;;;;;;;2097986;28;20321;-45
2022/04/02 01:00:16;;;;;;;;;;;;;;;;;;2093710;28;20003;-47
2022/04/02 01:01:17;;;;;;;;;;;;;;;;;;2097916;28;20034;-47
2022/04/02 01:02:19;;;;;;;;;;;;;;;;;;2092210;28;20074;-45
2022/04/02 01:03:21;;;;;;;;;;;;;;;;;;2089823;28;19925;-44
2022/04/02 01:04:22;;;;;;;;;;;;;;;;;;2089558;28;19971;-46
2022/04/02 01:05:23;;;;;;;;;;;;;;;;;;2089709;28;19925;-47
2022/04/02 01:06:24;;;;;;;;;;;;;;;;;;2096138;28;19924;-48
2022/04/02 01:07:25;;;;;;;;;;;;;;;;;;2097777;28;20286;-50
2022/04/02 01:08:26;;;;;;;;;;;;;;;;;;2097984;28;20018;-46
2022/04/02 01:09:27;;;;;;;;;;;;;;;;;;2096123;28;19961;-46
2022/04/02 01:10:28;;;;;;;;;;;;;;;;;;2093832;28;20312;-45
2022/04/02 01:11:30;;;;;;;;;;;;;;;;;;2097409;28;20137;-46
2022/04/02 01:12:31;;;;;;;;;;;;;;;;;;2089670;28;19925;-46
2022/04/02 01:13:32;;;;;;;;;;;;;;;;;;2089573;28;19925;-45
2022/04/02 01:14:33;;;;;;;;;;;;;;;;;;2089525;28;19936;-45
2022/04/02 01:15:34;;;;;;;;;;;;;;;;;;2089399;28;19925;-46
2022/04/02 01:16:35;;;;;;;;;;;;;;;;;;2089667;28;20321;-44
2022/04/02 01:17:40;;;;;;;;;;;;;;;;;;2089774;28;19931;-46
2022/04/02 01:18:40;;;;;;;;;;;;;;;;;;2089517;28;19925;-48
2022/04/02 01:19:42;;;;;;;;;;;;;;;;;;2089297;28;19924;-50
2022/04/02 01:20:43;;;;;;;;;;;;;;;;;;2089610;28;19925;-53
2022/04/02 01:21:44;;;;;;;;;;;;;;;;;;2089502;28;19925;-49
2022/04/02 01:22:45;;;;;;;;;;;;;;;;;;2089587;28;19991;-45
2022/04/02 01:23:46;;;;;;;;;;;;;;;;;;2089633;28;19932;-48
2022/04/02 01:24:47;;;;;;;;;;;;;;;;;;2089550;28;20080;-49
2022/04/02 01:25:48;;;;;;;;;;;;;;;;;;2089365;28;19931;-52
2022/04/02 01:26:49;;;;;;;;;;;;;;;;;;2089405;28;19979;-49
2022/04/02 01:27:51;;;;;;;;;;;;;;;;;;2092355;28;20588;-46
2022/04/02 01:28:53;;;;;;;;;;;;;;;;;;2097211;28;20360;-44
2022/04/02 01:29:54;;;;;;;;;;;;;;;;;;2098110;28;20431;-45
2022/04/02 01:30:55;;;;;;;;;;;;;;;;;;2097628;28;20342;-46
2022/04/02 01:31:56;;;;;;;;;;;;;;;;;;2097839;28;19924;-45
2022/04/02 01:32:57;;;;;;;;;;;;;;;;;;2095619;28;19928;-51
2022/04/02 01:33:59;;;;;;;;;;;;;;;;;;2098259;28;20305;-45
2022/04/02 01:35:00;;;;;;;;;;;;;;;;;;2098853;28;19925;-44
2022/04/02 01:36:01;;;;;;;;;;;;;;;;;;2097668;28;19960;-48
2022/04/02 01:37:03;;;;;;;;;;;;;;;;;;2097916;28;19932;-44
2022/04/02 01:38:04;;;;;;;;;;;;;;;;;;2097565;28;19924;-44
2022/04/02 01:39:05;;;;;;;;;;;;;;;;;;2098017;28;19929;-44
2022/04/02 01:40:07;;;;;;;;;;;;;;;;;;2097691;28;19924;-45
2022/04/02 01:41:09;;;;;;;;;;;;;;;;;;2092503;28;20009;-49
2022/04/02 01:42:17;;;;;;;;;;;;;;;;;;2097804;28;19931;-47
2022/04/02 01:43:19;;;;;;;;;;;;;;;;;;2097506;28;19924;-47
2022/04/02 01:44:19;;;;;;;;;;;;;;;;;;2097492;28;19924;-47
2022/04/02 01:45:21;;;;;;;;;;;;;;;;;;2097822;28;20414;-48
2022/04/02 01:46:22;;;;;;;;;;;;;;;;;;2097988;28;19924;-47
2022/04/02 01:47:23;;;;;;;;;;;;;;;;;;2098168;28;19924;-46
2022/04/02 01:48:24;;;;;;;;;;;;;;;;;;2098015;28;19924;-48
2022/04/02 01:49:25;;;;;;;;;;;;;;;;;;2097779;28;20004;-47
2022/04/02 01:50:26;;;;;;;;;;;;;;;;;;2098178;28;19935;-46
2022/04/02 01:51:27;;;;;;;;;;;;;;;;;;2097461;28;19929;-50
2022/04/02 01:52:28;;;;;;;;;;;;;;;;;;2097800;28;19986;-46
2022/04/02 01:53:30;;;;;;;;;;;;;;;;;;2097484;28;19982;-47
2022/04/02 01:54:30;;;;;;;;;;;;;;;;;;2097567;28;19929;-47
2022/04/02 01:55:32;;;;;;;;;;;;;;;;;;2097768;28;20391;-47
2022/04/02 01:56:32;;;;;;;;;;;;;;;;;;2097536;28;19924;-45
2022/04/02 01:57:33;;;;;;;;;;;;;;;;;;2097576;28;20277;-46
2022/04/02 01:58:34;;;;;;;;;;;;;;;;;;2097741;28;19931;-46
2022/04/02 01:59:36;;;;;;;;;;;;;;;;;;2097983;28;19932;-50
2022/04/02 02:00:36;;;;;;;;;;;;;;;;;;2097758;28;19928;-52
2022/04/02 02:01:38;;;;;;;;;;;;;;;;;;2097799;28;19932;-49
2022/04/02 02:02:39;;;;;;;;;;;;;;;;;;2097422;28;19925;-50
2022/04/02 02:03:40;;;;;;;;;;;;;;;;;;2097421;28;19924;-49
2022/04/02 02:04:41;;;;;;;;;;;;;;;;;;2097599;28;19954;-45
2022/04/02 02:05:42;;;;;;;;;;;;;;;;;;2097433;28;19986;-46
2022/04/02 02:06:45;;;;;;;;;;;;;;;;;;2095027;28;20266;-46
2022/04/02 02:07:46;;;;;;;;;;;;;;;;;;2089250;28;20262;-46
2022/04/02 02:08:47;;;;;;;;;;;;;;;;;;2089361;28;19929;-49
2022/04/02 02:09:48;;;;;;;;;;;;;;;;;;2089193;28;19932;-49
2022/04/02 02:10:49;;;;;;;;;;;;;;;;;;2089224;28;20374;-50
2022/04/02 02:11:50;;;;;;;;;;;;;;;;;;2089148;28;19925;-51
2022/04/02 02:12:51;;;;;;;;;;;;;;;;;;2089371;28;19940;-49
2022/04/02 02:13:52;;;;;;;;;;;;;;;;;;2090080;28;19925;-46
2022/04/02 02:14:53;;;;;;;;;;;;;;;;;;2089324;28;19931;-47
2022/04/02 02:15:54;;;;;;;;;;;;;;;;;;2089312;28;19925;-47
2022/04/02 02:16:55;;;;;;;;;;;;;;;;;;2089616;28;19924;-53
2022/04/02 02:17:57;;;;;;;;;;;;;;;;;;2089342;28;19947;-47
2022/04/02 02:18:58;;;;;;;;;;;;;;;;;;2089614;28;19987;-46
2022/04/02 02:20:00;;;;;;;;;;;;;;;;;;2089254;28;19925;-48
2022/04/02 02:21:00;;;;;;;;;;;;;;;;;;2089547;28;19979;-47
2022/04/02 02:22:02;;;;;;;;;;;;;;;;;;2089090;28;19978;-46
2022/04/02 02:23:02;;;;;;;;;;;;;;;;;;2089128;28;19925;-47
2022/04/02 02:24:04;;;;;;;;;;;;;;;;;;2089322;28;19960;-47
2022/04/02 02:25:05;;;;;;;;;;;;;;;;;;2089571;28;19929;-51
2022/04/02 02:26:06;;;;;;;;;;;;;;;;;;2091976;28;19932;-51
2022/04/02 02:27:08;;;;;;;;;;;;;;;;;;2097122;28;20374;-50
2022/04/02 02:28:09;;;;;;;;;;;;;;;;;;2095686;28;20365;-50
2022/04/02 02:29:10;;;;;;;;;;;;;;;;;;2096475;28;19932;-51
2022/04/02 02:30:11;;;;;;;;;;;;;;;;;;2097044;28;19960;-53
2022/04/02 02:31:12;;;;;;;;;;;;;;;;;;2096822;28;19970;-51
2022/04/02 02:32:13;;;;;;;;;;;;;;;;;;2097927;28;19924;-46
2022/04/02 02:35:54;;;;;;;;;;;;;;;;;;2096759;28;19935;-46
2022/04/02 02:36:55;;;;;;;;;;;;;;;;;;2097382;28;19924;-44
2022/04/02 02:37:56;;;;;;;;;;;;;;;;;;2097628;28;20995;-46
2022/04/02 02:38:57;;;;;;;;;;;;;;;;;;2097319;28;19924;-45
2022/04/02 02:39:58;;;;;;;;;;;;;;;;;;2097936;28;19935;-50
2022/04/02 02:41:00;;;;;;;;;;;;;;;;;;2097616;28;20286;-49
2022/04/02 02:42:00;;;;;;;;;;;;;;;;;;2098300;28;19924;-50
2022/04/02 02:43:02;;;;;;;;;;;;;;;;;;2098696;28;19932;-49
2022/04/02 02:44:03;;;;;;;;;;;;;;;;;;2097718;28;19970;-49
2022/04/02 02:45:04;;;;;;;;;;;;;;;;;;2097560;28;20341;-52
2022/04/02 02:46:05;;;;;;;;;;;;;;;;;;2097771;28;19933;-49
2022/04/02 02:47:06;;;;;;;;;;;;;;;;;;2097531;28;19985;-49
2022/04/02 02:48:07;;;;;;;;;;;;;;;;;;2097655;28;20439;-51
2022/04/02 02:49:08;;;;;;;;;;;;;;;;;;2097673;28;19928;-48
2022/04/02 02:50:09;;;;;;;;;;;;;;;;;;2096391;28;19924;-50
2022/04/02 02:51:10;;;;;;;;;;;;;;;;;;2097130;28;20370;-51
2022/04/02 02:52:11;;;;;;;;;;;;;;;;;;2097432;28;19936;-49
2022/04/02 02:53:12;;;;;;;;;;;;;;;;;;2097680;28;19932;-45
2022/04/02 02:54:13;;;;;;;;;;;;;;;;;;2096694;28;20022;-45
2022/04/02 02:55:15;;;;;;;;;;;;;;;;;;2097576;28;20355;-45
2022/04/02 02:56:16;;;;;;;;;;;;;;;;;;2097284;28;19933;-44
2022/04/02 02:57:17;;;;;;;;;;;;;;;;;;2097844;28;19924;-46
2022/04/02 02:58:18;;;;;;;;;;;;;;;;;;2098343;28;20350;-44
2022/04/02 02:59:19;;;;;;;;;;;;;;;;;;2096349;28;19931;-45
2022/04/02 03:00:20;;;;;;;;;;;;;;;;;;2097389;28;20365;-46
2022/04/02 03:01:21;;;;;;;;;;;;;;;;;;2097160;28;20611;-45
2022/04/02 03:02:22;;;;;;;;;;;;;;;;;;2097401;28;19931;-45
2022/04/02 03:03:24;;;;;;;;;;;;;;;;;;2097240;28;19928;-45
2022/04/02 03:04:25;;;;;;;;;;;;;;;;;;2096348;28;19925;-44
2022/04/02 03:05:26;;;;;;;;;;;;;;;;;;2097449;28;20010;-45
2022/04/02 03:06:27;;;;;;;;;;;;;;;;;;2097281;28;19962;-47
2022/04/02 03:07:28;;;;;;;;;;;;;;;;;;2097359;28;19928;-46
2022/04/02 03:08:29;;;;;;;;;;;;;;;;;;2097674;28;19999;-45
2022/04/02 03:09:30;;;;;;;;;;;;;;;;;;2097375;28;19948;-46
2022/04/02 03:10:31;;;;;;;;;;;;;;;;;;2097321;28;20133;-46
2022/04/02 03:11:32;;;;;;;;;;;;;;;;;;2097820;28;20365;-53
2022/04/02 03:12:33;;;;;;;;;;;;;;;;;;2097382;28;19983;-49
2022/04/02 03:13:34;;;;;;;;;;;;;;;;;;2097792;28;19951;-48
2022/04/02 03:14:36;;;;;;;;;;;;;;;;;;2097372;28;19928;-48
2022/04/02 03:15:38;;;;;;;;;;;;;;;;;;2097460;28;19932;-45
2022/04/02 03:16:39;;;;;;;;;;;;;;;;;;2097343;28;19932;-49
2022/04/02 03:17:40;;;;;;;;;;;;;;;;;;2097282;28;20285;-49
2022/04/02 03:18:41;;;;;;;;;;;;;;;;;;2097516;28;19925;-49
2022/04/02 03:19:42;;;;;;;;;;;;;;;;;;2097791;28;19938;-50
2022/04/02 03:20:43;;;;;;;;;;;;;;;;;;2097170;28;19947;-49
2022/04/02 03:21:44;;;;;;;;;;;;;;;;;;2097172;28;19937;-48
2022/04/02 03:22:46;;;;;;;;;;;;;;;;;;2097552;28;19947;-45
2022/04/02 03:23:46;;;;;;;;;;;;;;;;;;2097633;28;20017;-45
2022/04/02 03:24:48;;;;;;;;;;;;;;;;;;2097408;28;19928;-46
2022/04/02 03:25:49;;;;;;;;;;;;;;;;;;2096603;28;20297;-45
2022/04/02 03:26:50;;;;;;;;;;;;;;;;;;2097558;28;20365;-45
2022/04/02 03:27:51;;;;;;;;;;;;;;;;;;2097503;28;19932;-45
2022/04/02 03:28:52;;;;;;;;;;;;;;;;;;2097265;28;19924;-46
2022/04/02 03:29:53;;;;;;;;;;;;;;;;;;2098061;28;19930;-52
2022/04/02 03:30:54;;;;;;;;;;;;;;;;;;2096118;28;19956;-50
2022/04/02 03:31:55;;;;;;;;;;;;;;;;;;2097262;28;20397;-50
2022/04/02 03:32:56;;;;;;;;;;;;;;;;;;2096946;28;19925;-49
2022/04/02 03:33:57;;;;;;;;;;;;;;;;;;2097128;28;19924;-48
2022/04/02 03:34:58;;;;;;;;;;;;;;;;;;2097083;28;20405;-49
2022/04/02 03:35:59;;;;;;;;;;;;;;;;;;2097873;28;19936;-50
2022/04/02 03:37:00;;;;;;;;;;;;;;;;;;2096109;28;19932;-49
2022/04/02 03:38:01;;;;;;;;;;;;;;;;;;2097184;28;19924;-49
2022/04/02 03:39:03;;;;;;;;;;;;;;;;;;2097122;28;19932;-48
2022/04/02 03:40:05;;;;;;;;;;;;;;;;;;2097069;28;20581;-49
2022/04/02 03:41:06;;;;;;;;;;;;;;;;;;2098067;28;19924;-49
2022/04/02 03:42:07;;;;;;;;;;;;;;;;;;2097601;28;19940;-50
2022/04/02 03:43:08;;;;;;;;;;;;;;;;;;2098377;28;20328;-49
2022/04/02 03:44:09;;;;;;;;;;;;;;;;;;2097125;28;19931;-51
2022/04/02 03:45:10;;;;;;;;;;;;;;;;;;2097541;28;19936;-50
2022/04/02 03:47:31;;;;;;;;;;;;;;;;;;2097172;28;20011;-50
2022/04/02 03:48:32;;;;;;;;;;;;;;;;;;2096732;28;19925;-49
2022/04/02 03:49:33;;;;;;;;;;;;;;;;;;2097356;28;20281;-49
2022/04/02 03:50:34;;;;;;;;;;;;;;;;;;2097443;28;20661;-49
2022/04/02 03:51:35;;;;;;;;;;;;;;;;;;2097212;28;19924;-45
2022/04/02 03:52:36;;;;;;;;;;;;;;;;;;2097779;28;20352;-46
2022/04/02 03:53:37;;;;;;;;;;;;;;;;;;2097007;28;19924;-46
2022/04/02 03:54:39;;;;;;;;;;;;;;;;;;2097751;28;19929;-53
2022/04/02 03:55:40;;;;;;;;;;;;;;;;;;2097008;28;19932;-50
2022/04/02 03:56:41;;;;;;;;;;;;;;;;;;2097034;28;19933;-49
2022/04/02 03:57:44;;;;;;;;;;;;;;;;;;2097036;28;19932;-49
2022/04/02 03:58:45;;;;;;;;;;;;;;;;;;2096907;28;19925;-49
2022/04/02 03:59:46;;;;;;;;;;;;;;;;;;2097481;28;19986;-50
2022/04/02 04:00:47;;;;;;;;;;;;;;;;;;2097896;28;19924;-50
2022/04/02 04:01:49;;;;;;;;;;;;;;;;;;2097746;28;20003;-49
2022/04/02 04:02:51;;;;;;;;;;;;;;;;;;2097407;28;19924;-51
2022/04/02 04:03:52;;;;;;;;;;;;;;;;;;2097452;28;19932;-50
2022/04/02 04:04:53;;;;;;;;;;;;;;;;;;2096119;28;19924;-50
2022/04/02 04:05:54;;;;;;;;;;;;;;;;;;2093456;28;19924;-49
2022/04/02 04:06:56;;;;;;;;;;;;;;;;;;2098050;28;20026;-50
2022/04/02 04:07:57;;;;;;;;;;;;;;;;;;2098111;28;19978;-45
2022/04/02 04:08:58;;;;;;;;;;;;;;;;;;2097936;28;20006;-46
2022/04/02 04:09:59;;;;;;;;;;;;;;;;;;2097615;28;19924;-48
2022/04/02 04:11:01;;;;;;;;;;;;;;;;;;2098146;28;20283;-51
2022/04/02 04:12:01;;;;;;;;;;;;;;;;;;2098015;28;19924;-49
2022/04/02 04:13:03;;;;;;;;;;;;;;;;;;2098141;28;19931;-52
2022/04/02 04:14:03;;;;;;;;;;;;;;;;;;2098081;28;19929;-51
2022/04/02 04:15:05;;;;;;;;;;;;;;;;;;2098705;28;19928;-45
2022/04/02 04:16:07;;;;;;;;;;;;;;;;;;2095707;28;19936;-45
2022/04/02 04:17:09;;;;;;;;;;;;;;;;;;2092230;28;20520;-45
2022/04/02 04:18:09;;;;;;;;;;;;;;;;;;2098113;28;20373;-45
2022/04/02 04:19:11;;;;;;;;;;;;;;;;;;2092303;28;19951;-44
2022/04/02 04:20:12;;;;;;;;;;;;;;;;;;2089800;28;19932;-45
2022/04/02 04:21:14;;;;;;;;;;;;;;;;;;2092604;28;20358;-46
2022/04/02 04:22:15;;;;;;;;;;;;;;;;;;2098373;28;19924;-47
2022/04/02 04:23:17;;;;;;;;;;;;;;;;;;2098119;28;19931;-47
2022/04/02 04:24:18;;;;;;;;;;;;;;;;;;2097863;28;19999;-45
2022/04/02 04:25:22;;;;;;;;;;;;;;;;;;2097325;28;20441;-46
2022/04/02 04:26:23;;;;;;;;;;;;;;;;;;2095891;28;20397;-45
2022/04/02 04:27:24;;;;;;;;;;;;;;;;;;2096998;28;19932;-45
2022/04/02 04:28:25;;;;;;;;;;;;;;;;;;2097315;28;20279;-50
2022/04/02 04:29:26;;;;;;;;;;;;;;;;;;2097355;28;19935;-51
2022/04/02 04:30:27;;;;;;;;;;;;;;;;;;2097552;28;19931;-49
2022/04/02 04:31:28;;;;;;;;;;;;;;;;;;2097887;28;19924;-50
2022/04/02 04:32:30;;;;;;;;;;;;;;;;;;2095568;28;20316;-50
2022/04/02 04:33:31;;;;;;;;;;;;;;;;;;2096858;28;20007;-52
2022/04/02 04:34:33;;;;;;;;;;;;;;;;;;2097074;28;19924;-50
2022/04/02 04:35:33;;;;;;;;;;;;;;;;;;2096995;28;19912;-48
2022/04/02 04:36:35;;;;;;;;;;;;;;;;;;2097030;28;19943;-50
2022/04/02 04:37:36;;;;;;;;;;;;;;;;;;2096953;28;19939;-46
2022/04/02 04:38:37;;;;;;;;;;;;;;;;;;2096309;28;19925;-49
2022/04/02 04:39:38;;;;;;;;;;;;;;;;;;2096992;28;19929;-47
2022/04/02 04:40:39;;;;;;;;;;;;;;;;;;2095716;28;19971;-45
2022/04/02 04:41:41;;;;;;;;;;;;;;;;;;2096993;28;19925;-46
2022/04/02 04:42:42;;;;;;;;;;;;;;;;;;2097049;28;20373;-45
2022/04/02 04:43:43;;;;;;;;;;;;;;;;;;2096833;28;20373;-45
2022/04/02 04:44:44;;;;;;;;;;;;;;;;;;2097154;28;19931;-46
2022/04/02 04:45:45;;;;;;;;;;;;;;;;;;2097369;28;20608;-51
2022/04/02 04:46:46;;;;;;;;;;;;;;;;;;2097446;28;19925;-50
2022/04/02 04:47:47;;;;;;;;;;;;;;;;;;2095830;28;20306;-49
2022/04/02 04:48:49;;;;;;;;;;;;;;;;;;2096906;28;19939;-49
2022/04/02 04:49:50;;;;;;;;;;;;;;;;;;2096598;28;20408;-49
2022/04/02 04:50:52;;;;;;;;;;;;;;;;;;2096901;28;20309;-50
2022/04/02 04:51:53;;;;;;;;;;;;;;;;;;2097751;28;19951;-49
2022/04/02 04:52:54;;;;;;;;;;;;;;;;;;2098007;28;19924;-51
2022/04/02 04:53:55;;;;;;;;;;;;;;;;;;2096075;28;19925;-45
2022/04/02 04:54:56;;;;;;;;;;;;;;;;;;2094601;28;19924;-45
2022/04/02 04:55:57;;;;;;;;;;;;;;;;;;2097579;28;20281;-49
2022/04/02 04:56:58;;;;;;;;;;;;;;;;;;2090252;28;20310;-46
2022/04/02 04:57:59;;;;;;;;;;;;;;;;;;2089858;28;19992;-45
2022/04/02 04:59:00;;;;;;;;;;;;;;;;;;2089937;28;19931;-46
2022/04/02 05:00:01;;;;;;;;;;;;;;;;;;2091675;28;19925;-46
2022/04/02 05:01:02;;;;;;;;;;;;;;;;;;2097921;28;19931;-45
2022/04/02 05:02:04;;;;;;;;;;;;;;;;;;2097740;28;19924;-45
2022/04/02 05:03:05;;;;;;;;;;;;;;;;;;2097701;28;19951;-46
2022/04/02 05:04:06;;;;;;;;;;;;;;;;;;2098338;28;19931;-45
2022/04/02 05:05:07;;;;;;;;;;;;;;;;;;2097777;28;19951;-44
2022/04/02 05:06:28;;;;;;;;;;;;;;;;;;2097763;28;20354;-44
2022/04/02 05:07:29;;;;;;;;;;;;;;;;;;2097837;28;20288;-45
2022/04/02 05:08:30;;;;;;;;;;;;;;;;;;2094940;28;19924;-45
2022/04/02 05:09:31;;;;;;;;;;;;;;;;;;2089511;28;20362;-44
2022/04/02 05:10:32;;;;;;;;;;;;;;;;;;2089777;28;20008;-45
2022/04/02 05:11:34;;;;;;;;;;;;;;;;;;2089503;28;20417;-46
2022/04/02 05:12:35;;;;;;;;;;;;;;;;;;2089580;28;19924;-44
2022/04/02 05:13:36;;;;;;;;;;;;;;;;;;2089963;28;19925;-48
2022/04/02 05:14:37;;;;;;;;;;;;;;;;;;2089603;28;19960;-48
2022/04/02 05:15:40;;;;;;;;;;;;;;;;;;2089811;28;19929;-44
2022/04/02 05:16:41;;;;;;;;;;;;;;;;;;2089433;28;19925;-45
2022/04/02 05:17:42;;;;;;;;;;;;;;;;;;2092039;28;19938;-45
2022/04/02 05:18:44;;;;;;;;;;;;;;;;;;2097791;28;19932;-45
2022/04/02 05:19:45;;;;;;;;;;;;;;;;;;2098168;28;19925;-47
2022/04/02 05:20:46;;;;;;;;;;;;;;;;;;2098103;28;20301;-45
2022/04/02 05:21:47;;;;;;;;;;;;;;;;;;2098049;28;19925;-49
2022/04/02 05:22:48;;;;;;;;;;;;;;;;;;2097749;28;20286;-49
2022/04/02 05:23:49;;;;;;;;;;;;;;;;;;2097865;28;19928;-49
2022/04/02 05:24:50;;;;;;;;;;;;;;;;;;2097069;28;19925;-49
2022/04/02 05:25:51;;;;;;;;;;;;;;;;;;2093386;28;19931;-44
2022/04/02 05:26:52;;;;;;;;;;;;;;;;;;2090406;28;19925;-44
2022/04/02 05:27:54;;;;;;;;;;;;;;;;;;2097907;28;19928;-51
2022/04/02 05:28:56;;;;;;;;;;;;;;;;;;2097865;28;20022;-52
2022/04/02 05:29:57;;;;;;;;;;;;;;;;;;2097703;28;19929;-49
2022/04/02 05:31:00;;;;;;;;;;;;;;;;;;2095909;28;19924;-45
2022/04/02 05:32:01;;;;;;;;;;;;;;;;;;2089286;28;19928;-44
2022/04/02 05:33:02;;;;;;;;;;;;;;;;;;2096164;28;20263;-45
2022/04/02 05:34:12;;;;;;;;;;;;;;;;;;2096293;28;20405;-45
2022/04/02 05:35:13;;;;;;;;;;;;;;;;;;2094822;28;19924;-44
2022/04/02 05:36:15;;;;;;;;;;;;;;;;;;2094947;28;19924;-48
2022/04/02 05:37:16;;;;;;;;;;;;;;;;;;2089574;28;20358;-52
2022/04/02 05:38:20;;;;;;;;;;;;;;;;;;2089864;28;19929;-44
2022/04/02 05:39:21;;;;;;;;;;;;;;;;;;2096456;28;19925;-49
2022/04/02 05:40:24;;;;;;;;;;;;;;;;;;2097566;28;20350;-52
2022/04/02 05:41:26;;;;;;;;;;;;;;;;;;2098027;28;19928;-49
2022/04/02 05:42:26;;;;;;;;;;;;;;;;;;2097142;28;20386;-49
2022/04/02 05:43:28;;;;;;;;;;;;;;;;;;2097335;28;19925;-50
2022/04/02 05:44:30;;;;;;;;;;;;;;;;;;2097648;28;19932;-45
2022/04/02 05:45:32;;;;;;;;;;;;;;;;;;2090715;28;19925;-45
2022/04/02 05:46:33;;;;;;;;;;;;;;;;;;2089302;28;19925;-49
2022/04/02 05:47:34;;;;;;;;;;;;;;;;;;2089430;28;19971;-49
2022/04/02 05:48:35;;;;;;;;;;;;;;;;;;2089295;28;20301;-49
2022/04/02 05:49:36;;;;;;;;;;;;;;;;;;2089307;28;20267;-53
2022/04/02 05:50:37;;;;;;;;;;;;;;;;;;2090522;28;19932;-49
2022/04/02 05:51:39;;;;;;;;;;;;;;;;;;2097284;28;20039;-49
2022/04/02 05:52:40;;;;;;;;;;;;;;;;;;2098319;28;19960;-44
2022/04/02 05:53:41;;;;;;;;;;;;;;;;;;2097792;28;19932;-44
2022/04/02 05:54:42;;;;;;;;;;;;;;;;;;2097483;28;20355;-44
2022/04/02 05:55:44;;;;;;;;;;;;;;;;;;2097903;28;19963;-49
2022/04/02 05:56:46;;;;;;;;;;;;;;;;;;2091886;28;19932;-52
2022/04/02 05:57:46;;;;;;;;;;;;;;;;;;2089308;28;19932;-51
2022/04/02 05:58:48;;;;;;;;;;;;;;;;;;2089526;28;19933;-51
2022/04/02 05:59:49;;;;;;;;;;;;;;;;;;2090479;28;20386;-50
2022/04/02 06:00:50;;;;;;;;;;;;;;;;;;2094429;28;19924;-49
2022/04/02 06:01:50;;;;;;;;;;;;;;;;;;2095144;28;20082;-49
2022/04/02 06:02:52;;;;;;;;;;;;;;;;;;2089649;28;19925;-45
2022/04/02 06:03:53;;;;;;;;;;;;;;;;;;2089408;28;20085;-46
2022/04/02 06:04:54;;;;;;;;;;;;;;;;;;2089277;28;20271;-44
2022/04/02 06:05:55;;;;;;;;;;;;;;;;;;2091852;28;19931;-44
2022/04/02 06:06:56;;;;;;;;;;;;;;;;;;2098878;28;19925;-45
2022/04/02 06:07:57;;;;;;;;;;;;;;;;;;2099216;28;20344;-50
2022/04/02 06:08:58;;;;;;;;;;;;;;;;;;2099079;28;20228;-49
2022/04/02 06:09:59;;;;;;;;;;;;;;;;;;2099084;28;19924;-51
2022/04/02 06:11:01;;;;;;;;;;;;;;;;;;2098965;28;19936;-49
2022/04/02 06:12:02;;;;;;;;;;;;;;;;;;2099255;28;19925;-51
2022/04/02 06:13:03;;;;;;;;;;;;;;;;;;2099323;28;20385;-51
2022/04/02 06:14:04;;;;;;;;;;;;;;;;;;2098154;28;19925;-50
2022/04/02 06:15:05;;;;;;;;;;;;;;;;;;2090787;28;19988;-46
2022/04/02 06:16:06;;;;;;;;;;;;;;;;;;2090458;28;20382;-45
2022/04/02 06:17:07;;;;;;;;;;;;;;;;;;2090776;28;19925;-46
2022/04/02 06:18:09;;;;;;;;;;;;;;;;;;2090798;28;19929;-45
2022/04/02 06:19:09;;;;;;;;;;;;;;;;;;2090594;28;20317;-45
2022/04/02 06:20:11;;;;;;;;;;;;;;;;;;2091486;28;20016;-46
2022/04/02 06:21:11;;;;;;;;;;;;;;;;;;2096705;28;19924;-44
2022/04/02 06:22:13;;;;;;;;;;;;;;;;;;2095531;28;19924;-44
2022/04/02 06:23:13;;;;;;;;;;;;;;;;;;2098505;28;19925;-45
2022/04/02 06:24:15;;;;;;;;;;;;;;;;;;2097885;28;20364;-47
2022/04/02 06:25:16;;;;;;;;;;;;;;;;;;2097680;28;19932;-45
2022/04/02 06:26:17;;;;;;;;;;;;;;;;;;2097339;28;19924;-45
2022/04/02 06:27:18;;;;;;;;;;;;;;;;;;2098525;28;20167;-45
2022/04/02 06:28:20;;;;;;;;;;;;;;;;;;2098068;28;20393;-46
2022/04/02 06:29:20;;;;;;;;;;;;;;;;;;2098366;28;19924;-45
2022/04/02 06:30:22;;;;;;;;;;;;;;;;;;2098112;28;19934;-44
2022/04/02 06:31:27;;;;;;;;;;;;;;;;;;2095205;28;19924;-46
2022/04/02 06:32:28;;;;;;;;;;;;;;;;;;2093388;28;19932;-49
2022/04/02 06:33:29;;;;;;;;;;;;;;;;;;2098800;28;19936;-49
2022/04/02 06:34:30;;;;;;;;;;;;;;;;;;2098521;28;19924;-49
2022/04/02 06:35:31;;;;;;;;;;;;;;;;;;2098958;28;19931;-45
2022/04/02 06:36:32;;;;;;;;;;;;;;;;;;2095566;28;19948;-46
2022/04/02 06:37:34;;;;;;;;;;;;;;;;;;2094358;28;19939;-45
2022/04/02 06:38:35;;;;;;;;;;;;;;;;;;2097047;28;19924;-45
2022/04/02 06:39:36;;;;;;;;;;;;;;;;;;2089971;28;19932;-45
2022/04/02 06:40:37;;;;;;;;;;;;;;;;;;2090654;28;20382;-49
2022/04/02 06:41:38;;;;;;;;;;;;;;;;;;2090399;28;20290;-49
2022/04/02 06:42:39;;;;;;;;;;;;;;;;;;2091923;28;19925;-46
2022/04/02 06:43:40;;;;;;;;;;;;;;;;;;2098696;28;20293;-44
2022/04/02 06:44:42;;;;;;;;;;;;;;;;;;2098753;28;20007;-44
2022/04/02 06:45:42;;;;;;;;;;;;;;;;;;2098744;28;19925;-44
2022/04/02 06:46:44;;;;;;;;;;;;;;;;;;2098765;28;19924;-48
2022/04/02 06:47:44;;;;;;;;;;;;;;;;;;2098572;28;19929;-49
2022/04/02 06:48:46;;;;;;;;;;;;;;;;;;2092058;28;19928;-49
2022/04/02 06:49:47;;;;;;;;;;;;;;;;;;2097612;28;19940;-50
2022/04/02 06:50:48;;;;;;;;;;;;;;;;;;2096613;28;19935;-45
2022/04/02 06:51:49;;;;;;;;;;;;;;;;;;2097359;28;19932;-45
2022/04/02 06:52:50;;;;;;;;;;;;;;;;;;2098231;28;19974;-48
2022/04/02 06:53:51;;;;;;;;;;;;;;;;;;2090652;28;20027;-44
2022/04/02 06:54:52;;;;;;;;;;;;;;;;;;2095949;28;19924;-47
2022/04/02 06:55:53;;;;;;;;;;;;;;;;;;2098746;28;19972;-47
2022/04/02 06:56:55;;;;;;;;;;;;;;;;;;2098801;28;19924;-50
2022/04/02 06:57:56;;;;;;;;;;;;;;;;;;2098652;28;19977;-48
2022/04/02 06:58:57;;;;;;;;;;;;;;;;;;2098747;28;20328;-47
2022/04/02 06:59:58;;;;;;;;;;;;;;;;;;2098679;28;19925;-48
2022/04/02 07:00:59;;;;;;;;;;;;;;;;;;2098893;28;20428;-47
2022/04/02 07:02:01;;;;;;;;;;;;;;;;;;2098478;28;19924;-48
2022/04/02 07:03:02;;;;;;;;;;;;;;;;;;2098664;28;20352;-49
2022/04/02 07:04:03;;;;;;;;;;;;;;;;;;2098688;28;19928;-48